createdAt,value
2023-02-06T00:00:10.941Z,14.40
2023-02-06T00:03:14.167Z,14.07
2023-02-06T00:06:17.061Z,13.68
2023-02-06T00:09:19.690Z,13.10
2023-02-06T00:12:22.261Z,12.93
2023-02-06T00:15:25.583Z,11.10
2023-02-06T00:18:29.240Z,11.50
2023-02-06T00:21:32.136Z,11.93
2023-02-06T00:24:34.794Z,12.83
2023-02-06T00:27:38.570Z,12.93
2023-02-06T00:30:41.408Z,12.93
2023-02-06T00:33:44.095Z,12.57
2023-02-06T00:36:46.702Z,12.70
2023-02-06T00:39:50.565Z,12.23
2023-02-06T00:42:53.861Z,13.50
2023-02-06T00:45:57.830Z,12.50
2023-02-06T00:49:03.102Z,12.32
2023-02-06T00:52:06.565Z,11.75
2023-02-06T00:55:09.137Z,12.17
2023-02-06T00:58:13.215Z,12.67
2023-02-06T01:01:19.656Z,12.38
2023-02-06T01:04:22.653Z,11.88
2023-02-06T01:07:25.256Z,12.23
2023-02-06T01:10:29.119Z,12.27
2023-02-06T01:13:32.596Z,11.43
2023-02-06T01:16:35.190Z,11.60
2023-02-06T01:19:39.260Z,9.93
2023-02-06T01:22:41.965Z,10.68
2023-02-06T01:25:45.653Z,10.03
2023-02-06T01:28:50.187Z,9.60
2023-02-06T01:31:52.919Z,9.30
2023-02-06T01:34:56.068Z,8.90
2023-02-06T01:37:58.736Z,9.50
2023-02-06T01:41:02.016Z,9.17
2023-02-06T01:44:22.542Z,8.37
2023-02-06T01:47:25.128Z,8.52
2023-02-06T01:50:30.749Z,8.57
2023-02-06T01:53:35.958Z,8.35
2023-02-06T01:56:44.966Z,8.27
2023-02-06T01:59:52.623Z,8.03
2023-02-06T02:02:55.482Z,8.27
2023-02-06T02:06:01.519Z,7.38
2023-02-06T02:09:07.621Z,7.53
2023-02-06T02:12:11.508Z,8.20
2023-02-06T02:15:14.276Z,8.53
2023-02-06T02:18:25.845Z,8.10
2023-02-06T02:22:05.979Z,7.18
2023-02-06T02:25:32.919Z,7.72
2023-02-06T02:29:06.865Z,7.13
2023-02-06T02:32:19.323Z,6.73
2023-02-06T02:35:31.230Z,7.72
2023-02-06T02:39:13.724Z,7.82
2023-02-06T02:42:27.080Z,7.20
2023-02-06T02:45:48.243Z,7.73
2023-02-06T02:48:54.205Z,6.30
2023-02-06T02:51:59.402Z,7.05
2023-02-06T02:55:15.059Z,6.82
2023-02-06T02:58:26.690Z,6.38
2023-02-06T03:01:52.182Z,7.20
2023-02-06T03:04:59.699Z,6.63
2023-02-06T03:08:22.022Z,6.88
2023-02-06T03:11:25.771Z,7.18
2023-02-06T03:14:43.977Z,6.97
2023-02-06T03:18:03.977Z,7.47
2023-02-06T03:21:11.054Z,6.80
2023-02-06T03:24:17.457Z,6.78
2023-02-06T03:27:23.007Z,6.88
2023-02-06T03:30:30.026Z,6.68
2023-02-06T03:33:39.933Z,6.83
2023-02-06T03:36:42.732Z,7.30
2023-02-06T03:39:45.609Z,8.18
2023-02-06T03:42:53.612Z,7.70
2023-02-06T03:46:03.451Z,8.48
2023-02-06T03:49:10.436Z,8.40
2023-02-06T03:52:19.611Z,7.07
2023-02-06T03:55:24.383Z,7.97
2023-02-06T03:58:27.834Z,8.13
2023-02-06T04:01:30.548Z,7.65
2023-02-06T04:04:39.279Z,7.90
2023-02-06T04:07:43.009Z,8.23
2023-02-06T04:10:46.243Z,7.63
2023-02-06T04:13:48.827Z,8.55
2023-02-06T04:16:52.273Z,8.60
2023-02-06T04:19:55.875Z,7.60
2023-02-06T04:23:00.076Z,8.07
2023-02-06T04:26:03.632Z,8.32
2023-02-06T04:29:06.543Z,7.32
2023-02-06T04:32:09.990Z,6.97
2023-02-06T04:35:12.562Z,8.17
2023-02-06T04:38:15.182Z,7.63
2023-02-06T04:41:18.392Z,7.68
2023-02-06T04:44:21.819Z,7.88
2023-02-06T04:47:25.364Z,6.90
2023-02-06T04:50:31.454Z,8.07
2023-02-06T04:53:34.988Z,7.27
2023-02-06T04:56:38.483Z,7.10
2023-02-06T04:59:41.051Z,7.47
2023-02-06T05:02:43.689Z,7.38
2023-02-06T05:05:46.376Z,7.70
2023-02-06T05:08:48.867Z,7.45
2023-02-06T05:11:51.561Z,7.40
2023-02-06T05:14:55.498Z,8.02
2023-02-06T05:17:58.804Z,7.60
2023-02-06T05:21:04.397Z,8.47
2023-02-06T05:24:07.130Z,7.80
2023-02-06T05:27:09.769Z,8.25
2023-02-06T05:30:14.220Z,8.55
2023-02-06T05:33:18.979Z,9.38
2023-02-06T05:36:22.861Z,9.13
2023-02-06T05:39:25.625Z,7.87
2023-02-06T05:42:28.403Z,9.20
2023-02-06T05:45:31.052Z,9.07
2023-02-06T05:48:35.030Z,8.68
2023-02-06T05:51:37.796Z,7.80
2023-02-06T05:54:40.503Z,6.80
2023-02-06T05:57:44.759Z,7.10
2023-02-06T06:00:48.470Z,7.20
2023-02-06T06:03:52.265Z,7.47
2023-02-06T06:06:54.970Z,7.20
2023-02-06T06:09:58.567Z,7.37
2023-02-06T06:13:01.259Z,6.80
2023-02-06T06:16:04.416Z,6.70
2023-02-06T06:19:07.276Z,6.20
2023-02-06T06:22:11.538Z,6.70
2023-02-06T06:25:17.432Z,6.47
2023-02-06T06:28:21.088Z,6.28
2023-02-06T06:31:24.644Z,6.30
2023-02-06T06:34:28.051Z,6.20
2023-02-06T06:37:31.454Z,6.13
2023-02-06T06:40:35.067Z,7.47
2023-02-06T06:43:37.901Z,7.00
2023-02-06T06:46:42.393Z,16.55
2023-02-06T06:49:49.440Z,7.20
2023-02-06T06:52:52.137Z,6.23
2023-02-06T06:55:55.004Z,7.83
2023-02-06T06:58:59.575Z,7.50
2023-02-06T07:02:02.907Z,7.32
2023-02-06T07:05:07.528Z,8.00
2023-02-06T07:08:10.867Z,6.80
2023-02-06T07:11:15.278Z,7.30
2023-02-06T07:14:18.469Z,7.15
2023-02-06T07:17:21.314Z,7.75
2023-02-06T07:20:24.447Z,7.45
2023-02-06T07:23:28.588Z,7.53
2023-02-06T07:26:31.613Z,7.47
2023-02-06T07:29:35.911Z,8.23
2023-02-06T07:32:38.913Z,7.93
2023-02-06T07:35:42.105Z,8.75
2023-02-06T07:38:45.564Z,6.87
2023-02-06T07:41:50.452Z,8.97
2023-02-06T07:44:55.999Z,8.23
2023-02-06T07:47:59.318Z,11.02
2023-02-06T07:51:08.809Z,7.50
2023-02-06T07:55:09.640Z,6.60
2023-02-06T07:58:19.839Z,7.50
2023-02-06T08:01:23.795Z,6.85
2023-02-06T08:04:29.543Z,7.57
2023-02-06T08:07:32.500Z,6.90
2023-02-06T08:10:38.962Z,7.20
2023-02-06T08:13:43.037Z,7.33
2023-02-06T08:16:46.382Z,8.20
2023-02-06T08:19:51.532Z,6.93
2023-02-06T08:22:54.766Z,5.55
2023-02-06T08:26:13.691Z,5.77
2023-02-06T08:29:16.744Z,6.00
2023-02-06T08:32:25.751Z,5.82
2023-02-06T08:35:41.528Z,7.00
2023-02-06T08:39:01.053Z,7.00
2023-02-06T08:42:11.266Z,6.77
2023-02-06T08:45:55.665Z,7.27
2023-02-06T08:50:15.698Z,7.43
2023-02-06T08:53:30.296Z,6.72
2023-02-06T08:56:35.213Z,7.65
2023-02-06T08:59:38.731Z,7.03
2023-02-06T09:02:44.818Z,7.10
2023-02-06T09:05:52.677Z,6.93
2023-02-06T09:09:00.343Z,6.88
2023-02-06T09:12:04.458Z,6.45
2023-02-06T09:15:08.231Z,7.00
2023-02-06T09:18:12.279Z,6.93
2023-02-06T09:21:22.508Z,7.35
2023-02-06T09:24:27.478Z,6.13
2023-02-06T09:27:30.633Z,6.47
2023-02-06T09:30:33.820Z,7.00
2023-02-06T09:33:38.606Z,7.03
2023-02-06T09:36:41.686Z,7.35
2023-02-06T09:39:47.652Z,7.57
2023-02-06T09:42:53.731Z,7.72
2023-02-06T09:46:02.387Z,6.90
2023-02-06T09:49:20.395Z,6.80
2023-02-06T09:52:59.132Z,6.45
2023-02-06T09:56:28.219Z,8.13
2023-02-06T09:59:49.663Z,6.35
2023-02-06T10:03:25.938Z,7.07
2023-02-06T10:06:41.192Z,6.13
2023-02-06T10:09:52.834Z,7.82
2023-02-06T10:13:20.838Z,7.72
2023-02-06T10:16:36.390Z,6.78
2023-02-06T10:19:54.390Z,6.10
2023-02-06T10:22:57.881Z,8.00
2023-02-06T10:26:23.532Z,6.43
2023-02-06T10:29:50.879Z,6.45
2023-02-06T10:33:25.673Z,6.25
2023-02-06T10:37:02.703Z,6.27
2023-02-06T10:41:08.987Z,6.07
2023-02-06T10:44:53.012Z,11.63
2023-02-06T10:48:22.739Z,5.72
2023-02-06T10:52:01.691Z,6.00
2023-02-06T10:55:49.957Z,6.00
2023-02-06T10:59:05.979Z,6.83
2023-02-06T11:02:26.935Z,5.55
2023-02-06T11:05:32.313Z,5.68
2023-02-06T11:08:41.095Z,32.28
2023-02-06T11:11:49.731Z,5.23
2023-02-06T11:14:55.872Z,5.23
2023-02-06T11:18:07.031Z,5.07
2023-02-06T11:21:13.112Z,5.45
2023-02-06T11:24:17.845Z,5.70
2023-02-06T11:27:21.061Z,5.90
2023-02-06T11:30:33.694Z,6.00
2023-02-06T11:33:45.712Z,6.05
2023-02-06T11:36:53.437Z,5.75
2023-02-06T11:40:17.691Z,6.78
2023-02-06T11:43:23.986Z,6.23
2023-02-06T11:46:37.425Z,6.20
2023-02-06T11:49:40.682Z,5.93
2023-02-06T11:52:47.178Z,5.47
2023-02-06T11:56:06.733Z,5.30
2023-02-06T11:59:24.381Z,5.87
2023-02-06T12:02:40.574Z,5.43
2023-02-06T12:06:26.014Z,5.38
2023-02-06T12:09:49.865Z,7.10
2023-02-06T12:13:46.776Z,6.45
2023-02-06T12:16:53.385Z,5.57
2023-02-06T12:20:26.985Z,5.47
2023-02-06T12:23:53.602Z,5.80
2023-02-06T12:27:00.092Z,5.85
2023-02-06T12:30:44.317Z,5.90
2023-02-06T12:33:56.241Z,5.47
2023-02-06T12:37:18.529Z,5.73
2023-02-06T12:40:41.466Z,5.47
2023-02-06T12:43:56.320Z,5.28
2023-02-06T12:47:02.241Z,5.70
2023-02-06T12:50:40.144Z,5.80
2023-02-06T12:54:37.501Z,5.77
2023-02-06T12:57:55.109Z,5.70
2023-02-06T13:01:35.838Z,5.60
2023-02-06T13:04:54.937Z,5.95
2023-02-06T13:08:11.037Z,5.30
2023-02-06T13:11:28.797Z,5.27
2023-02-06T13:14:37.511Z,5.43
2023-02-06T13:17:43.062Z,5.60
2023-02-06T13:21:25.332Z,5.00
2023-02-06T13:24:33.092Z,6.00
2023-02-06T13:27:49.077Z,5.30
2023-02-06T13:30:58.732Z,5.65
2023-02-06T13:34:06.010Z,5.97
2023-02-06T13:37:42.549Z,5.93
2023-02-06T13:40:45.446Z,6.00
2023-02-06T13:43:55.554Z,5.60
2023-02-06T13:47:22.380Z,5.82
2023-02-06T13:50:36.557Z,6.03
2023-02-06T13:53:52.530Z,5.35
2023-02-06T13:57:08.568Z,5.37
2023-02-06T14:00:20.270Z,6.20
2023-02-06T14:03:28.585Z,5.50
2023-02-06T14:06:48.157Z,5.95
2023-02-06T14:10:30.236Z,6.20
2023-02-06T14:14:24.148Z,5.53
2023-02-06T14:18:02.052Z,5.73
2023-02-06T14:21:29.519Z,6.00
2023-02-06T14:24:58.641Z,5.50
2023-02-06T14:28:33.948Z,5.78
2023-02-06T14:32:00.846Z,9.57
2023-02-06T14:35:26.387Z,6.20
2023-02-06T14:38:43.959Z,5.28
2023-02-06T14:41:47.616Z,7.07
2023-02-06T14:45:03.841Z,5.55
2023-02-06T14:48:29.102Z,6.13
2023-02-06T14:51:58.358Z,5.87
2023-02-06T14:55:31.279Z,5.80
2023-02-06T14:58:34.848Z,5.82
2023-02-06T15:01:37.979Z,6.20
2023-02-06T15:04:48.042Z,6.00
2023-02-06T15:08:01.846Z,5.80
2023-02-06T15:11:07.080Z,6.55
2023-02-06T15:14:27.185Z,6.47
2023-02-06T15:17:31.746Z,5.90
2023-02-06T15:20:41.490Z,6.40
2023-02-06T15:24:20.875Z,6.27
2023-02-06T15:27:28.318Z,6.28
2023-02-06T15:30:37.502Z,6.30
2023-02-06T15:33:41.447Z,5.93
2023-02-06T15:36:44.278Z,6.13
2023-02-06T15:39:47.556Z,7.60
2023-02-06T15:42:51.453Z,5.95
2023-02-06T15:45:57.084Z,6.65
2023-02-06T15:48:59.892Z,6.60
2023-02-06T15:52:04.869Z,6.23
2023-02-06T15:55:25.763Z,6.87
2023-02-06T15:58:35.212Z,6.95
2023-02-06T16:01:42.227Z,6.28
2023-02-06T16:04:45.816Z,7.13
2023-02-06T16:07:52.229Z,6.80
2023-02-06T16:11:26.442Z,6.83
2023-02-06T16:14:40.978Z,6.60
2023-02-06T16:17:43.756Z,7.22
2023-02-06T16:20:46.804Z,7.35
2023-02-06T16:24:03.338Z,7.13
2023-02-06T16:27:27.892Z,7.67
2023-02-06T16:30:35.095Z,7.50
2023-02-06T16:33:44.356Z,7.10
2023-02-06T16:36:48.651Z,9.02
2023-02-06T16:39:53.270Z,7.33
2023-02-06T16:42:56.001Z,8.50
2023-02-06T16:46:02.358Z,7.75
2023-02-06T16:49:13.963Z,7.90
2023-02-06T16:52:25.866Z,7.97
2023-02-06T16:55:29.282Z,8.13
2023-02-06T16:58:34.937Z,8.27
2023-02-06T17:01:37.867Z,9.75
2023-02-06T17:04:41.680Z,54.15
2023-02-06T17:07:45.428Z,12.85
2023-02-06T17:10:48.370Z,10.97
2023-02-06T17:13:51.076Z,10.00
2023-02-06T17:16:55.343Z,11.60
2023-02-06T17:19:58.750Z,11.35
2023-02-06T17:23:03.110Z,10.20
2023-02-06T17:26:10.286Z,11.00
2023-02-06T17:29:14.419Z,10.90
2023-02-06T17:32:22.222Z,11.90
2023-02-06T17:35:25.407Z,13.00
2023-02-06T17:38:28.094Z,13.32
2023-02-06T17:41:31.377Z,13.57
2023-02-06T17:44:33.930Z,14.60
2023-02-06T17:47:36.722Z,12.25
2023-02-06T17:50:41.605Z,13.95
2023-02-06T17:53:45.910Z,14.40
2023-02-06T17:56:49.241Z,14.23
2023-02-06T17:59:53.745Z,14.33
2023-02-06T18:02:59.300Z,15.55
2023-02-06T18:06:02.816Z,16.23
2023-02-06T18:09:05.945Z,17.05
2023-02-06T18:12:09.961Z,15.60
2023-02-06T18:15:14.072Z,13.67
2023-02-06T18:18:16.772Z,14.10
2023-02-06T18:21:20.903Z,14.27
2023-02-06T18:24:23.796Z,13.13
2023-02-06T18:27:27.320Z,13.10
2023-02-06T18:30:30.975Z,14.17
2023-02-06T18:33:36.047Z,13.10
2023-02-06T18:36:38.759Z,14.20
2023-02-06T18:39:42.428Z,16.65
2023-02-06T18:42:53.520Z,16.57
2023-02-06T18:45:57.356Z,18.43
2023-02-06T18:49:00.790Z,18.73
2023-02-06T18:52:06.859Z,17.65
2023-02-06T18:55:10.554Z,16.27
2023-02-06T18:58:13.492Z,17.67
2023-02-06T19:01:20.928Z,14.93
2023-02-06T19:04:24.855Z,17.08
2023-02-06T19:07:28.746Z,15.15
2023-02-06T19:10:31.807Z,15.23
2023-02-06T19:13:34.807Z,15.27
2023-02-06T19:16:38.710Z,15.30
2023-02-06T19:19:41.518Z,16.60
2023-02-06T19:22:44.539Z,16.20
2023-02-06T19:25:48.317Z,15.85
2023-02-06T19:28:52.078Z,16.53
2023-02-06T19:31:54.890Z,16.33
2023-02-06T19:34:59.704Z,17.73
2023-02-06T19:38:03.542Z,17.05
2023-02-06T19:41:15.947Z,16.58
2023-02-06T19:44:19.056Z,15.93
2023-02-06T19:47:22.568Z,15.73
2023-02-06T19:50:25.500Z,14.88
2023-02-06T19:53:29.813Z,14.13
2023-02-06T19:56:40.690Z,12.18
2023-02-06T19:59:43.604Z,12.27
2023-02-06T20:02:46.458Z,11.47
2023-02-06T20:05:51.052Z,11.55
2023-02-06T20:08:54.128Z,11.35
2023-02-06T20:11:57.658Z,11.18
2023-02-06T20:15:01.698Z,12.27
2023-02-06T20:18:06.292Z,12.07
2023-02-06T20:21:27.941Z,11.23
2023-02-06T20:24:32.541Z,11.82
2023-02-06T20:27:35.381Z,10.90
2023-02-06T20:30:38.647Z,10.90
2023-02-06T20:33:42.967Z,10.87
2023-02-06T20:36:46.422Z,11.48
2023-02-06T20:39:49.548Z,10.80
2023-02-06T20:42:53.470Z,10.95
2023-02-06T20:45:57.051Z,10.63
2023-02-06T20:49:02.605Z,11.43
2023-02-06T20:52:06.631Z,11.38
2023-02-06T20:55:09.803Z,14.50
2023-02-06T20:58:13.764Z,12.63
2023-02-06T21:01:19.335Z,15.87
2023-02-06T21:04:22.942Z,16.03
2023-02-06T21:07:25.870Z,16.00
2023-02-06T21:10:30.734Z,16.77
2023-02-06T21:13:34.512Z,17.10
2023-02-06T21:16:38.379Z,17.10
2023-02-06T21:19:41.510Z,17.73
2023-02-06T21:22:44.944Z,18.15
2023-02-06T21:25:55.548Z,10.82
2023-02-06T21:28:59.564Z,16.45
2023-02-06T21:32:13.227Z,16.57
2023-02-06T21:35:17.594Z,15.73
2023-02-06T21:38:21.066Z,15.90
2023-02-06T21:41:24.157Z,14.57
2023-02-06T21:44:27.046Z,14.00
2023-02-06T21:47:30.448Z,14.20
2023-02-06T21:50:36.844Z,16.27
2023-02-06T21:53:40.158Z,16.55
2023-02-06T21:56:43.879Z,18.08
2023-02-06T21:59:46.516Z,17.40
2023-02-06T22:02:50.127Z,18.43
2023-02-06T22:05:54.535Z,18.50
2023-02-06T22:09:05.271Z,17.85
2023-02-06T22:12:08.801Z,18.35
2023-02-06T22:15:11.589Z,17.92
2023-02-06T22:18:15.039Z,19.37
2023-02-06T22:21:21.295Z,17.60
2023-02-06T22:24:24.635Z,18.33
2023-02-06T22:27:30.656Z,18.60
2023-02-06T22:30:33.414Z,17.83
2023-02-06T22:33:37.721Z,18.47
2023-02-06T22:36:41.054Z,19.00
2023-02-06T22:39:43.633Z,18.90
2023-02-06T22:42:47.057Z,20.00
2023-02-06T22:45:49.923Z,19.90
2023-02-06T22:48:54.434Z,20.40
2023-02-06T22:51:58.839Z,20.27
2023-02-06T22:55:04.236Z,20.15
2023-02-06T22:58:06.867Z,18.95
2023-02-06T23:01:09.963Z,18.05
2023-02-06T23:04:16.083Z,19.77
2023-02-06T23:07:18.679Z,18.77
2023-02-06T23:10:21.392Z,19.10
2023-02-06T23:13:24.022Z,17.92
2023-02-06T23:16:29.793Z,17.52
2023-02-06T23:19:32.496Z,19.37
2023-02-06T23:22:36.104Z,20.67
2023-02-06T23:25:44.605Z,19.05
2023-02-06T23:28:47.389Z,21.35
2023-02-06T23:31:50.788Z,21.13
2023-02-06T23:34:54.136Z,21.00
2023-02-06T23:37:57.668Z,23.57
2023-02-06T23:41:15.541Z,23.17
2023-02-06T23:44:19.174Z,23.60
2023-02-06T23:47:21.791Z,23.45
2023-02-06T23:50:26.264Z,23.43
2023-02-06T23:53:30.085Z,23.03
2023-02-06T23:56:33.220Z,22.75
2023-02-06T23:59:36.703Z,19.67
